Time;durP1;ratioP1;P1;durP2;ratioP2;P2;SDS_P1;SDS_P2;PMS_P1;PMS_P2;Temp;Humidity;BMP_temperature;BMP_pressure;BME280_temperature;BME280_humidity;BME280_pressure;Samples;Min_cycle;Max_cycle;Signal;HPM_P1;HPM_P2
2022/12/24 00:00:28;;;;;;;1.05;0.52;;;;;;;;;;5015088;28;20030;-65
2022/12/24 00:02:55;;;;;;;1.75;1.05;;;;;;;;;;5006660;28;20029;-65
2022/12/24 00:05:22;;;;;;;1.30;0.70;;;;;;;;;;5020917;28;20532;-62
2022/12/24 00:07:48;;;;;;;1.45;0.77;;;;;;;;;;5032962;28;20038;-65
2022/12/24 00:10:15;;;;;;;2.20;1.48;;;;;;;;;;5022350;28;20041;-66
2022/12/24 00:12:41;;;;;;;1.92;0.80;;;;;;;;;;5019448;28;20528;-64
2022/12/24 00:15:08;;;;;;;1.20;0.57;;;;;;;;;;5021138;28;20041;-63
2022/12/24 00:17:35;;;;;;;0.45;0.30;;;;;;;;;;5020299;28;20056;-65
2022/12/24 00:20:03;;;;;;;1.17;0.77;;;;;;;;;;5020027;28;20041;-65
2022/12/24 00:22:29;;;;;;;1.17;0.75;;;;;;;;;;5014655;28;20037;-64
2022/12/24 00:24:56;;;;;;;0.40;0.40;;;;;;;;;;5014850;28;20041;-65
2022/12/24 00:27:23;;;;;;;0.90;0.52;;;;;;;;;;5039397;28;20588;-64
2022/12/24 00:29:49;;;;;;;1.70;1.50;;;;;;;;;;5039622;28;20048;-66
2022/12/24 00:32:16;;;;;;;0.60;0.55;;;;;;;;;;5039656;28;20044;-65
2022/12/24 00:34:43;;;;;;;0.30;0.30;;;;;;;;;;5039058;28;20037;-66
2022/12/24 00:37:09;;;;;;;0.98;0.63;;;;;;;;;;5039256;28;20052;-66
2022/12/24 00:39:36;;;;;;;2.95;1.08;;;;;;;;;;5040340;28;20041;-64
2022/12/24 00:42:03;;;;;;;0.63;0.45;;;;;;;;;;5037350;28;20049;-63
2022/12/24 00:44:29;;;;;;;1.27;0.75;;;;;;;;;;5038785;28;20048;-65
2022/12/24 00:46:56;;;;;;;2.00;1.05;;;;;;;;;;5028399;28;20040;-64
2022/12/24 00:49:22;;;;;;;3.42;1.38;;;;;;;;;;5038933;28;20068;-64
2022/12/24 00:51:49;;;;;;;1.80;1.13;;;;;;;;;;5038793;28;20041;-64
2022/12/24 00:54:16;;;;;;;2.03;0.93;;;;;;;;;;5022028;28;20048;-64
2022/12/24 00:56:42;;;;;;;6.68;1.08;;;;;;;;;;5036202;28;20110;-64
2022/12/24 00:59:09;;;;;;;4.53;0.75;;;;;;;;;;5025241;28;20532;-66
2022/12/24 01:01:36;;;;;;;2.45;1.00;;;;;;;;;;5018806;28;20171;-63
2022/12/24 01:06:48;;;;;;;1.80;0.88;;;;;;;;;;5040156;28;20561;-66
2022/12/24 01:09:15;;;;;;;1.55;0.60;;;;;;;;;;5041307;28;20489;-64
2022/12/24 01:11:41;;;;;;;2.42;1.02;;;;;;;;;;5035973;28;20501;-66
2022/12/24 01:14:08;;;;;;;2.35;0.93;;;;;;;;;;5039275;28;20072;-65
2022/12/24 01:16:34;;;;;;;2.17;1.10;;;;;;;;;;5027284;28;20157;-66
2022/12/24 01:19:01;;;;;;;5.57;1.35;;;;;;;;;;5021789;28;20045;-67
2022/12/24 01:21:28;;;;;;;1.08;0.55;;;;;;;;;;5019700;28;20044;-66
2022/12/24 01:23:54;;;;;;;0.95;0.52;;;;;;;;;;5020813;28;20371;-65
2022/12/24 01:26:21;;;;;;;2.85;1.40;;;;;;;;;;5021196;28;20140;-65
2022/12/24 01:28:48;;;;;;;1.88;0.82;;;;;;;;;;5021265;28;20041;-65
2022/12/24 01:31:16;;;;;;;2.33;1.25;;;;;;;;;;5035006;28;20588;-64
2022/12/24 01:33:43;;;;;;;17.33;2.90;;;;;;;;;;5020335;28;20042;-66
2022/12/24 01:36:10;;;;;;;0.20;0.20;;;;;;;;;;5026250;28;20287;-65
2022/12/24 01:38:37;;;;;;;3.30;0.88;;;;;;;;;;5053759;28;20124;-64
2022/12/24 01:43:49;;;;;;;0.93;0.88;;;;;;;;;;5051056;28;20047;-64
2022/12/24 01:46:19;;;;;;;1.10;0.70;;;;;;;;;;5046699;28;20040;-64
2022/12/24 01:48:49;;;;;;;3.03;1.33;;;;;;;;;;5045765;28;20064;-65
2022/12/24 01:51:23;;;;;;;0.75;0.75;;;;;;;;;;5046562;28;20029;-64
2022/12/24 01:53:53;;;;;;;1.45;0.95;;;;;;;;;;5045955;28;20048;-65
2022/12/24 01:56:21;;;;;;;2.72;0.85;;;;;;;;;;5042803;28;20433;-65
2022/12/24 01:58:51;;;;;;;5.25;0.85;;;;;;;;;;5043290;28;20131;-64
2022/12/24 02:01:17;;;;;;;3.17;0.75;;;;;;;;;;5043906;28;20044;-65
2022/12/24 02:03:44;;;;;;;6.28;2.22;;;;;;;;;;5042844;28;20477;-64
2022/12/24 02:06:14;;;;;;;5.43;1.90;;;;;;;;;;5043584;28;20394;-68
2022/12/24 02:08:41;;;;;;;2.38;0.90;;;;;;;;;;5041668;28;20033;-66
2022/12/24 02:11:11;;;;;;;3.33;0.85;;;;;;;;;;5042627;28;20048;-66
2022/12/24 02:13:37;;;;;;;2.40;1.40;;;;;;;;;;5042070;28;20114;-65
2022/12/24 02:16:04;;;;;;;2.95;1.08;;;;;;;;;;5040990;28;20044;-65
2022/12/24 02:18:38;;;;;;;1.25;0.77;;;;;;;;;;5054111;28;20049;-66
2022/12/24 02:21:14;;;;;;;1.20;0.60;;;;;;;;;;5056802;28;20307;-66
2022/12/24 02:23:59;;;;;;;1.10;0.63;;;;;;;;;;5057606;28;20120;-64
2022/12/24 02:26:37;;;;;;;0.20;0.20;;;;;;;;;;5053909;28;20045;-66
2022/12/24 02:29:22;;;;;;;3.83;0.68;;;;;;;;;;5046062;28;20033;-66
2022/12/24 02:31:57;;;;;;;4.45;1.20;;;;;;;;;;5051320;28;20130;-67
2022/12/24 02:34:26;;;;;;;0.20;0.20;;;;;;;;;;5052980;28;20086;-65
2022/12/24 02:37:13;;;;;;;1.48;0.52;;;;;;;;;;5050505;28;20041;-66
2022/12/24 02:39:43;;;;;;;1.02;0.75;;;;;;;;;;5048300;28;20494;-65
2022/12/24 02:42:12;;;;;;;7.75;0.98;;;;;;;;;;5044435;28;20195;-65
2022/12/24 02:44:41;;;;;;;0.20;0.20;;;;;;;;;;5044084;28;20125;-66
2022/12/24 02:47:09;;;;;;;1.65;0.77;;;;;;;;;;5043897;28;20146;-67
2022/12/24 02:49:36;;;;;;;0.30;0.30;;;;;;;;;;5043140;28;20048;-65
2022/12/24 02:52:03;;;;;;;0.22;0.22;;;;;;;;;;5043990;28;20440;-67
2022/12/24 02:54:30;;;;;;;0.20;0.20;;;;;;;;;;5043395;28;20043;-65
2022/12/24 02:57:17;;;;;;;0.73;0.30;;;;;;;;;;5042801;28;20095;-66
2022/12/24 02:59:54;;;;;;;0.20;0.20;;;;;;;;;;5037102;28;20513;-64
2022/12/24 03:02:27;;;;;;;0.95;0.47;;;;;;;;;;5040961;28;20048;-62
2022/12/24 03:05:12;;;;;;;3.72;1.05;;;;;;;;;;5042729;28;20469;-65
2022/12/24 03:07:59;;;;;;;2.08;0.88;;;;;;;;;;5041982;28;20048;-64
2022/12/24 03:10:55;;;;;;;0.45;0.35;;;;;;;;;;5040681;28;20044;-65
2022/12/24 03:13:22;;;;;;;3.75;1.42;;;;;;;;;;5026292;28;20041;-65
2022/12/24 03:16:50;;;;;;;1.48;0.65;;;;;;;;;;5059903;27;20434;-64
2022/12/24 03:19:17;;;;;;;0.75;0.68;;;;;;;;;;5043657;28;20100;-64
2022/12/24 03:21:45;;;;;;;0.68;0.40;;;;;;;;;;5059401;28;20525;-64
2022/12/24 03:24:12;;;;;;;2.10;0.63;;;;;;;;;;5054024;28;20040;-65
2022/12/24 03:26:39;;;;;;;0.20;0.20;;;;;;;;;;5049109;28;20085;-65
2022/12/24 03:29:07;;;;;;;0.30;0.30;;;;;;;;;;5044837;28;20045;-65
2022/12/24 03:31:42;;;;;;;0.30;0.30;;;;;;;;;;5049024;28;20043;-65
2022/12/24 03:34:09;;;;;;;37.28;2.00;;;;;;;;;;5058858;28;20470;-64
2022/12/24 03:36:36;;;;;;;0.20;0.20;;;;;;;;;;5058123;28;20057;-64
2022/12/24 03:39:03;;;;;;;0.30;0.30;;;;;;;;;;5061542;28;20123;-65
2022/12/24 03:41:30;;;;;;;0.55;0.52;;;;;;;;;;5055661;28;20044;-65
2022/12/24 03:43:56;;;;;;;0.75;0.75;;;;;;;;;;5036329;28;20596;-65
2022/12/24 03:46:23;;;;;;;0.77;0.77;;;;;;;;;;5044498;28;20051;-65
2022/12/24 03:48:50;;;;;;;0.20;0.20;;;;;;;;;;5058414;28;20598;-64
2022/12/24 03:51:20;;;;;;;1.55;0.75;;;;;;;;;;5042799;28;20032;-65
2022/12/24 03:53:47;;;;;;;7.30;1.00;;;;;;;;;;5049651;28;20118;-65
2022/12/24 03:56:14;;;;;;;0.22;0.20;;;;;;;;;;5058144;27;20051;-63
2022/12/24 03:58:40;;;;;;;0.20;0.20;;;;;;;;;;5058357;28;20685;-64
2022/12/24 04:01:07;;;;;;;0.30;0.30;;;;;;;;;;5058138;28;20040;-64
2022/12/24 04:03:34;;;;;;;0.52;0.52;;;;;;;;;;5057152;28;20459;-64
2022/12/24 04:06:04;;;;;;;0.43;0.43;;;;;;;;;;5057966;28;20044;-63
2022/12/24 04:08:31;;;;;;;0.30;0.30;;;;;;;;;;5057065;28;20048;-65
2022/12/24 04:10:57;;;;;;;7.22;1.55;;;;;;;;;;5056130;27;20079;-64
2022/12/24 04:13:24;;;;;;;0.20;0.20;;;;;;;;;;5056807;28;20289;-64
2022/12/24 04:15:58;;;;;;;3.20;0.63;;;;;;;;;;5056998;27;20049;-65
2022/12/24 04:18:25;;;;;;;0.80;0.80;;;;;;;;;;5058728;28;20037;-64
2022/12/24 04:20:51;;;;;;;0.38;0.38;;;;;;;;;;5058334;28;20040;-65
2022/12/24 04:23:18;;;;;;;0.20;0.20;;;;;;;;;;5058380;28;20266;-64
2022/12/24 04:25:45;;;;;;;0.20;0.20;;;;;;;;;;5058430;28;20067;-65
2022/12/24 04:28:11;;;;;;;0.65;0.60;;;;;;;;;;5040126;28;20045;-64
2022/12/24 04:30:39;;;;;;;0.20;0.20;;;;;;;;;;5036051;28;20083;-65
2022/12/24 04:33:05;;;;;;;0.30;0.28;;;;;;;;;;5031003;28;20045;-65
2022/12/24 04:35:33;;;;;;;0.20;0.20;;;;;;;;;;5033175;28;20052;-64
2022/12/24 04:37:59;;;;;;;0.20;0.20;;;;;;;;;;5039484;28;20036;-65
2022/12/24 04:40:26;;;;;;;7.20;0.60;;;;;;;;;;5044018;28;20067;-65
2022/12/24 04:42:53;;;;;;;0.47;0.30;;;;;;;;;;5043443;28;20056;-65
2022/12/24 04:45:19;;;;;;;0.30;0.30;;;;;;;;;;5043773;28;20041;-66
2022/12/24 04:47:46;;;;;;;0.30;0.30;;;;;;;;;;5032704;28;20041;-66
2022/12/24 04:50:13;;;;;;;0.55;0.40;;;;;;;;;;5039392;28;20532;-64
2022/12/24 04:52:39;;;;;;;0.95;0.95;;;;;;;;;;5042823;28;20075;-65
2022/12/24 16:44:09;;;;;;;2.85;1.13;;;;;;;;;;5050770;27;20442;-67
2022/12/24 16:46:36;;;;;;;3.75;1.95;;;;;;;;;;5037499;28;20090;-65
2022/12/24 16:49:03;;;;;;;5.60;2.45;;;;;;;;;;5038717;28;20067;-65
2022/12/24 16:51:30;;;;;;;6.05;3.38;;;;;;;;;;5038915;28;20050;-67
2022/12/24 16:53:56;;;;;;;3.00;1.38;;;;;;;;;;5038087;28;20037;-67
2022/12/24 16:56:23;;;;;;;3.05;1.90;;;;;;;;;;5053993;28;20037;-67
2022/12/24 16:58:50;;;;;;;3.03;1.88;;;;;;;;;;5038290;28;20063;-67
2022/12/24 17:01:16;;;;;;;4.68;2.63;;;;;;;;;;5053231;28;21852;-66
2022/12/24 17:03:43;;;;;;;2.47;1.40;;;;;;;;;;5061451;28;20059;-66
2022/12/24 17:06:10;;;;;;;4.78;2.13;;;;;;;;;;5073225;28;20041;-65
2022/12/24 17:08:36;;;;;;;7.60;1.92;;;;;;;;;;5052733;28;20049;-67
2022/12/24 17:11:03;;;;;;;5.68;2.22;;;;;;;;;;5053515;28;20048;-65
2022/12/24 17:13:30;;;;;;;2.30;1.33;;;;;;;;;;5031267;28;20108;-66
2022/12/24 17:15:56;;;;;;;6.30;3.00;;;;;;;;;;5063361;28;21605;-67
2022/12/24 17:18:23;;;;;;;8.45;3.35;;;;;;;;;;5058882;28;20458;-67
2022/12/24 17:20:59;;;;;;;4.40;2.38;;;;;;;;;;5060717;28;20086;-66
2022/12/24 17:23:26;;;;;;;5.90;2.10;;;;;;;;;;5058846;28;20051;-65
2022/12/24 17:25:53;;;;;;;6.47;3.25;;;;;;;;;;5062595;28;20025;-66
2022/12/24 17:28:20;;;;;;;6.55;2.70;;;;;;;;;;5058871;28;20087;-66
2022/12/24 17:30:46;;;;;;;9.10;2.67;;;;;;;;;;5060819;28;20037;-65
2022/12/24 17:33:13;;;;;;;5.60;2.95;;;;;;;;;;5060618;28;20072;-65
2022/12/24 17:35:40;;;;;;;6.35;3.40;;;;;;;;;;5060225;28;20120;-65
2022/12/24 17:38:06;;;;;;;10.65;3.10;;;;;;;;;;5061791;28;21670;-63
2022/12/24 17:40:33;;;;;;;7.50;2.90;;;;;;;;;;5061275;28;20432;-64
2022/12/24 17:43:00;;;;;;;13.27;4.97;;;;;;;;;;5058129;28;20109;-63
2022/12/24 17:45:26;;;;;;;5.03;2.70;;;;;;;;;;5060843;28;20074;-65
2022/12/24 17:47:53;;;;;;;5.15;3.20;;;;;;;;;;5061240;28;20033;-65
2022/12/24 17:50:20;;;;;;;4.00;2.28;;;;;;;;;;5059833;28;20040;-64
2022/12/24 17:52:46;;;;;;;15.45;8.32;;;;;;;;;;5060720;28;20476;-65
2022/12/24 17:55:13;;;;;;;7.57;3.50;;;;;;;;;;5050084;28;20044;-64
2022/12/24 17:57:40;;;;;;;5.38;3.13;;;;;;;;;;5048701;28;20088;-64
2022/12/24 18:00:07;;;;;;;5.82;2.95;;;;;;;;;;5048519;28;20037;-64
2022/12/24 18:02:33;;;;;;;13.75;3.05;;;;;;;;;;5047463;28;20087;-64
2022/12/24 18:05:00;;;;;;;9.95;3.83;;;;;;;;;;5048150;28;20097;-65
2022/12/24 18:07:27;;;;;;;8.00;3.55;;;;;;;;;;5049374;28;20132;-66
2022/12/24 18:09:53;;;;;;;7.82;3.97;;;;;;;;;;5051517;28;20131;-64
2022/12/24 18:12:20;;;;;;;7.45;3.75;;;;;;;;;;5051210;28;20067;-66
2022/12/24 18:14:46;;;;;;;5.60;3.38;;;;;;;;;;5048610;28;20605;-66
2022/12/24 18:17:13;;;;;;;6.78;3.55;;;;;;;;;;5065752;28;20452;-66
2022/12/24 18:19:40;;;;;;;7.20;3.85;;;;;;;;;;5049420;28;20067;-66
2022/12/24 18:22:06;;;;;;;11.45;3.80;;;;;;;;;;5049047;28;20049;-66
2022/12/24 18:24:33;;;;;;;9.57;3.58;;;;;;;;;;5048959;28;20127;-64
2022/12/24 18:27:01;;;;;;;8.00;4.68;;;;;;;;;;5048010;28;20374;-64
2022/12/24 18:29:28;;;;;;;10.93;4.70;;;;;;;;;;5045981;28;20176;-64
2022/12/24 18:31:54;;;;;;;12.43;4.75;;;;;;;;;;5048850;28;20112;-64
2022/12/24 18:34:21;;;;;;;14.35;4.63;;;;;;;;;;5046752;28;20032;-65
2022/12/24 18:36:48;;;;;;;9.45;4.45;;;;;;;;;;5048218;28;20458;-64
2022/12/24 18:39:14;;;;;;;11.57;4.95;;;;;;;;;;5049119;28;20439;-64
2022/12/24 18:41:41;;;;;;;15.30;5.80;;;;;;;;;;5047447;28;20574;-64
2022/12/24 18:44:09;;;;;;;9.63;5.10;;;;;;;;;;5047248;28;20500;-65
2022/12/24 18:46:36;;;;;;;10.43;4.97;;;;;;;;;;5049015;28;20040;-66
2022/12/24 18:49:02;;;;;;;9.73;4.72;;;;;;;;;;5050688;28;20040;-64
2022/12/24 18:51:31;;;;;;;7.90;4.70;;;;;;;;;;5047569;28;20056;-65
2022/12/24 18:53:57;;;;;;;13.88;5.88;;;;;;;;;;5049369;28;20115;-65
2022/12/24 18:56:25;;;;;;;9.77;5.05;;;;;;;;;;5045985;28;20060;-64
2022/12/24 18:58:55;;;;;;;10.18;4.88;;;;;;;;;;5048326;28;20045;-65
2022/12/24 19:01:24;;;;;;;11.43;5.05;;;;;;;;;;5048924;28;20041;-65
2022/12/24 19:03:51;;;;;;;10.15;5.35;;;;;;;;;;5050493;28;20936;-66
2022/12/24 19:06:18;;;;;;;10.23;5.38;;;;;;;;;;5051431;28;20048;-65
2022/12/24 19:08:44;;;;;;;12.20;6.55;;;;;;;;;;5051164;28;20041;-67
2022/12/24 19:11:11;;;;;;;12.73;5.25;;;;;;;;;;5046441;28;20153;-66
2022/12/24 19:13:37;;;;;;;11.95;5.40;;;;;;;;;;5041692;28;20202;-66
2022/12/24 19:16:05;;;;;;;11.60;5.28;;;;;;;;;;5046255;28;20075;-66
2022/12/24 19:18:32;;;;;;;10.57;5.88;;;;;;;;;;5042307;28;20068;-67
2022/12/24 19:21:08;;;;;;;14.75;6.47;;;;;;;;;;5048731;28;20047;-66
2022/12/24 19:23:35;;;;;;;14.07;7.25;;;;;;;;;;5044480;28;20063;-66
2022/12/24 19:26:01;;;;;;;14.40;7.57;;;;;;;;;;5044554;28;20524;-66
2022/12/24 19:28:29;;;;;;;11.85;5.90;;;;;;;;;;5044166;28;20048;-66
2022/12/24 19:30:55;;;;;;;18.17;6.53;;;;;;;;;;5044825;28;20512;-66
2022/12/24 19:33:22;;;;;;;11.43;5.88;;;;;;;;;;5044796;28;20029;-67
2022/12/24 19:35:49;;;;;;;13.65;6.13;;;;;;;;;;5046075;28;20041;-66
2022/12/24 19:38:15;;;;;;;15.32;6.38;;;;;;;;;;5047824;28;20075;-67
2022/12/24 19:40:42;;;;;;;13.27;7.07;;;;;;;;;;5044948;28;20062;-66
2022/12/24 19:43:09;;;;;;;14.90;7.00;;;;;;;;;;5043893;28;20155;-66
2022/12/24 19:45:35;;;;;;;11.50;6.57;;;;;;;;;;5045244;28;20422;-66
2022/12/24 19:48:02;;;;;;;9.38;6.13;;;;;;;;;;5048307;28;20040;-65
2022/12/24 19:50:29;;;;;;;15.90;6.35;;;;;;;;;;5044811;28;20088;-65
2022/12/24 19:52:56;;;;;;;11.70;5.40;;;;;;;;;;5045577;28;20072;-65
2022/12/24 19:55:23;;;;;;;10.60;5.78;;;;;;;;;;5044676;28;20041;-65
2022/12/24 19:57:51;;;;;;;15.00;6.30;;;;;;;;;;5045859;28;20044;-65
2022/12/24 20:00:18;;;;;;;11.90;5.75;;;;;;;;;;5044967;28;20049;-65
2022/12/24 20:02:44;;;;;;;12.98;6.53;;;;;;;;;;5045564;28;20045;-65
2022/12/24 20:05:11;;;;;;;11.82;6.00;;;;;;;;;;5044258;28;20387;-67
2022/12/24 20:07:38;;;;;;;13.05;6.70;;;;;;;;;;5045380;28;20044;-65
2022/12/24 20:10:04;;;;;;;15.40;7.55;;;;;;;;;;5043168;28;20048;-66
2022/12/24 20:12:32;;;;;;;12.40;6.20;;;;;;;;;;5042240;28;20024;-66
2022/12/24 20:14:58;;;;;;;13.70;6.50;;;;;;;;;;5018131;28;20034;-66
2022/12/24 20:17:25;;;;;;;10.98;6.35;;;;;;;;;;5022516;28;20040;-67
2022/12/24 20:19:52;;;;;;;11.35;6.63;;;;;;;;;;5036917;28;20056;-65
2022/12/24 20:22:18;;;;;;;17.50;6.75;;;;;;;;;;5043769;28;20513;-66
2022/12/24 20:24:45;;;;;;;13.88;7.20;;;;;;;;;;5042990;28;20032;-65
2022/12/24 20:27:12;;;;;;;16.30;6.75;;;;;;;;;;5046273;28;20068;-66
2022/12/24 20:29:39;;;;;;;13.48;6.57;;;;;;;;;;5043407;28;21829;-65
2022/12/24 20:32:06;;;;;;;13.57;6.53;;;;;;;;;;5042940;28;20060;-65
2022/12/24 20:34:33;;;;;;;13.48;7.57;;;;;;;;;;5043876;28;20103;-66
2022/12/24 20:36:59;;;;;;;13.68;6.70;;;;;;;;;;5042505;28;20044;-65
2022/12/24 20:39:26;;;;;;;12.05;6.63;;;;;;;;;;5042884;28;20047;-66
2022/12/24 20:41:52;;;;;;;12.23;6.63;;;;;;;;;;5043075;28;20441;-66
2022/12/24 20:44:19;;;;;;;18.92;8.38;;;;;;;;;;5043642;28;20101;-67
2022/12/24 20:46:46;;;;;;;16.70;7.53;;;;;;;;;;5045649;28;20133;-66
2022/12/24 20:49:12;;;;;;;15.45;7.45;;;;;;;;;;5053601;28;20065;-66
2022/12/24 20:51:39;;;;;;;19.08;7.97;;;;;;;;;;5030520;28;20130;-66
2022/12/24 20:54:06;;;;;;;18.63;7.70;;;;;;;;;;5035439;28;20035;-67
2022/12/24 20:56:32;;;;;;;13.75;7.80;;;;;;;;;;5043064;28;20071;-65
2022/12/24 20:59:00;;;;;;;16.30;7.88;;;;;;;;;;5041704;28;20078;-66
2022/12/24 21:01:27;;;;;;;18.02;8.38;;;;;;;;;;5044134;28;20033;-66
2022/12/24 21:03:54;;;;;;;14.20;7.65;;;;;;;;;;5043297;28;20059;-64
2022/12/24 21:06:22;;;;;;;13.77;7.35;;;;;;;;;;5041372;28;20614;-64
2022/12/24 21:08:50;;;;;;;16.15;8.15;;;;;;;;;;5044626;28;20769;-65
2022/12/24 21:14:01;;;;;;;12.23;7.22;;;;;;;;;;5043932;28;20933;-63
2022/12/24 21:16:30;;;;;;;12.25;6.45;;;;;;;;;;5042730;28;20048;-65
2022/12/24 21:18:56;;;;;;;13.70;6.43;;;;;;;;;;5043168;28;20521;-65
2022/12/24 21:21:23;;;;;;;15.23;6.28;;;;;;;;;;5041954;28;20056;-65
2022/12/24 21:23:49;;;;;;;11.80;5.80;;;;;;;;;;5041673;28;20099;-63
2022/12/24 21:26:16;;;;;;;11.02;5.85;;;;;;;;;;5043713;28;20032;-66
2022/12/24 21:28:44;;;;;;;12.85;5.28;;;;;;;;;;5043522;28;20418;-65
2022/12/24 21:31:11;;;;;;;9.93;5.22;;;;;;;;;;5046504;28;20040;-64
2022/12/24 21:33:38;;;;;;;13.05;5.28;;;;;;;;;;5049041;28;20049;-66
2022/12/24 21:36:05;;;;;;;10.40;5.22;;;;;;;;;;5048295;28;20052;-68
2022/12/24 21:38:32;;;;;;;12.25;5.82;;;;;;;;;;5045952;28;20033;-65
2022/12/24 21:41:04;;;;;;;9.15;5.13;;;;;;;;;;5045365;28;20033;-67
2022/12/24 21:43:34;;;;;;;11.35;5.60;;;;;;;;;;5045973;28;20052;-65
2022/12/24 21:46:01;;;;;;;10.75;5.22;;;;;;;;;;5046341;28;20067;-66
2022/12/24 21:51:13;;;;;;;10.60;5.03;;;;;;;;;;5046999;28;20658;-66
2022/12/24 21:56:24;;;;;;;13.18;5.13;;;;;;;;;;5046611;28;20044;-67
2022/12/24 21:58:51;;;;;;;10.48;5.05;;;;;;;;;;5047231;28;20406;-66
2022/12/24 22:01:18;;;;;;;10.45;5.38;;;;;;;;;;5046753;28;20095;-66
2022/12/24 22:03:48;;;;;;;10.52;5.00;;;;;;;;;;5046452;28;20524;-66
2022/12/24 22:11:47;;;;;;;10.48;5.70;;;;;;;;;;5046682;28;20044;-67
2022/12/24 22:14:14;;;;;;;13.38;5.15;;;;;;;;;;5046666;28;20611;-66
2022/12/24 22:16:40;;;;;;;10.00;5.57;;;;;;;;;;5047276;28;20140;-66
2022/12/24 22:19:07;;;;;;;13.18;4.95;;;;;;;;;;5046766;28;20395;-66
2022/12/24 22:21:34;;;;;;;11.23;5.45;;;;;;;;;;5046242;28;20072;-66
2022/12/24 22:24:00;;;;;;;9.35;4.65;;;;;;;;;;5047375;28;20514;-66
2022/12/24 22:26:27;;;;;;;8.52;4.55;;;;;;;;;;5047071;28;20064;-67
2022/12/24 22:28:54;;;;;;;12.32;5.20;;;;;;;;;;5046298;28;20190;-67
2022/12/24 22:31:24;;;;;;;18.33;5.43;;;;;;;;;;5046739;28;20036;-66
2022/12/24 22:33:51;;;;;;;11.68;6.03;;;;;;;;;;5048634;28;20689;-66
2022/12/24 22:36:17;;;;;;;9.95;4.97;;;;;;;;;;5047633;28;20033;-66
2022/12/24 22:38:44;;;;;;;8.80;4.75;;;;;;;;;;5035532;28;20513;-66
2022/12/24 22:41:13;;;;;;;11.15;5.45;;;;;;;;;;5028262;28;20117;-66
2022/12/24 22:43:39;;;;;;;12.65;5.07;;;;;;;;;;5024277;28;20045;-66
2022/12/24 22:46:07;;;;;;;12.60;5.80;;;;;;;;;;5028152;28;20038;-66
2022/12/24 22:48:37;;;;;;;19.35;5.43;;;;;;;;;;5025821;28;20083;-65
2022/12/24 22:51:07;;;;;;;10.02;5.38;;;;;;;;;;5029163;28;20099;-65
2022/12/24 22:53:35;;;;;;;13.10;5.78;;;;;;;;;;5025481;28;20066;-66
2022/12/24 22:56:02;;;;;;;10.45;4.85;;;;;;;;;;5026166;28;20037;-66
2022/12/24 22:58:28;;;;;;;10.57;4.57;;;;;;;;;;5041247;28;20047;-66
2022/12/24 23:00:55;;;;;;;6.82;4.15;;;;;;;;;;5026292;28;20671;-67
2022/12/24 23:03:22;;;;;;;9.68;4.57;;;;;;;;;;5024221;28;20045;-65
2022/12/24 23:05:59;;;;;;;7.93;4.78;;;;;;;;;;5027565;28;20207;-66
2022/12/24 23:08:26;;;;;;;8.88;4.22;;;;;;;;;;5027234;28;20045;-66
2022/12/24 23:10:53;;;;;;;11.57;5.03;;;;;;;;;;5027724;28;20032;-66
2022/12/24 23:16:06;;;;;;;6.97;3.95;;;;;;;;;;5026606;28;20163;-67
2022/12/24 23:18:33;;;;;;;9.38;4.32;;;;;;;;;;5024913;28;20119;-67
2022/12/24 23:21:04;;;;;;;10.02;4.30;;;;;;;;;;5025178;28;20072;-67
2022/12/24 23:23:30;;;;;;;8.02;4.45;;;;;;;;;;5024707;28;20564;-66
2022/12/24 23:26:10;;;;;;;11.38;4.22;;;;;;;;;;5027438;28;20045;-66
2022/12/24 23:28:37;;;;;;;7.07;3.92;;;;;;;;;;5025639;28;20075;-65
2022/12/24 23:31:04;;;;;;;12.52;5.30;;;;;;;;;;5026295;28;20048;-67
2022/12/24 23:33:30;;;;;;;11.57;5.00;;;;;;;;;;5022779;28;20555;-65
2022/12/24 23:35:57;;;;;;;12.25;5.10;;;;;;;;;;5025293;28;20041;-66
2022/12/24 23:38:24;;;;;;;10.57;5.22;;;;;;;;;;5024459;28;20107;-66
2022/12/24 23:40:54;;;;;;;13.68;5.38;;;;;;;;;;5024794;28;20422;-67
2022/12/24 23:43:20;;;;;;;14.60;5.32;;;;;;;;;;5020996;28;20128;-67
2022/12/24 23:45:48;;;;;;;11.45;4.80;;;;;;;;;;5037149;28;20036;-66
2022/12/24 23:48:14;;;;;;;8.45;4.70;;;;;;;;;;5046399;28;20036;-67
2022/12/24 23:50:41;;;;;;;12.73;5.50;;;;;;;;;;5060134;28;20179;-69
2022/12/24 23:53:08;;;;;;;10.18;5.10;;;;;;;;;;5045845;28;20045;-66
2022/12/24 23:55:35;;;;;;;11.32;4.82;;;;;;;;;;5046372;28;20041;-67
2022/12/24 23:58:01;;;;;;;13.93;5.95;;;;;;;;;;5030500;28;20029;-65
